createdAt,value
2018-08-22T00:00:48.562Z,1021.00
2018-08-22T00:01:48.544Z,1020.96
2018-08-22T00:02:48.514Z,1020.99
2018-08-22T00:03:48.490Z,1020.95
2018-08-22T00:04:48.473Z,1020.99
2018-08-22T00:05:48.443Z,1020.99
2018-08-22T00:06:48.419Z,1020.98
2018-08-22T00:07:48.396Z,1020.99
2018-08-22T00:08:48.421Z,1020.93
2018-08-22T00:09:48.351Z,1020.93
2018-08-22T00:10:48.322Z,1020.90
2018-08-22T00:11:48.298Z,1020.91
2018-08-22T00:12:48.275Z,1020.91
2018-08-22T00:13:48.252Z,1020.90
2018-08-22T00:14:48.226Z,1020.88
2018-08-22T00:15:48.207Z,1020.89
2018-08-22T00:16:48.179Z,1020.87
2018-08-22T00:17:48.156Z,1020.89
2018-08-22T00:18:48.130Z,1020.89
2018-08-22T00:19:48.106Z,1020.89
2018-08-22T00:20:48.084Z,1020.92
2018-08-22T00:21:48.059Z,1020.92
2018-08-22T00:22:48.036Z,1020.95
2018-08-22T00:23:48.011Z,1020.91
2018-08-22T00:24:47.986Z,1020.95
2018-08-22T00:25:47.962Z,1020.96
2018-08-22T00:26:47.941Z,1020.96
2018-08-22T00:27:47.915Z,1020.96
2018-08-22T00:28:47.890Z,1020.97
2018-08-22T00:29:47.867Z,1020.95
2018-08-22T00:30:47.841Z,1020.96
2018-08-22T00:31:47.817Z,1020.97
2018-08-22T00:32:47.794Z,1020.97
2018-08-22T00:33:47.768Z,1020.94
2018-08-22T00:34:47.748Z,1020.93
2018-08-22T00:35:47.721Z,1020.95
2018-08-22T00:36:47.697Z,1020.92
2018-08-22T00:37:47.673Z,1020.91
2018-08-22T00:38:47.647Z,1020.93
2018-08-22T00:39:47.623Z,1020.93
2018-08-22T00:40:47.600Z,1020.92
2018-08-22T00:41:47.577Z,1020.93
2018-08-22T00:42:47.552Z,1020.95
2018-08-22T00:43:47.527Z,1020.93
2018-08-22T00:44:47.507Z,1020.95
2018-08-22T00:45:47.479Z,1020.93
2018-08-22T00:46:47.454Z,1020.97
2018-08-22T00:47:47.431Z,1020.91
2018-08-22T00:48:47.406Z,1020.90
2018-08-22T00:49:47.383Z,1020.92
2018-08-22T00:50:47.359Z,1020.88
2018-08-22T00:51:47.333Z,1020.95
2018-08-22T00:52:47.309Z,1020.94
2018-08-22T00:53:47.284Z,1020.94
2018-08-22T00:54:47.261Z,1020.95
2018-08-22T00:55:47.236Z,1020.91
2018-08-22T00:56:47.212Z,1020.93
2018-08-22T00:57:47.197Z,1020.93
2018-08-22T00:58:47.163Z,1020.90
2018-08-22T00:59:47.139Z,1020.94
2018-08-22T01:00:47.115Z,1020.89
2018-08-22T01:01:47.091Z,1020.89
2018-08-22T01:02:47.066Z,1020.87
2018-08-22T01:03:47.042Z,1020.87
2018-08-22T01:04:47.018Z,1020.86
2018-08-22T01:05:46.993Z,1020.87
2018-08-22T01:06:46.968Z,1020.89
2018-08-22T01:07:46.945Z,1020.85
2018-08-22T01:08:46.920Z,1020.84
2018-08-22T01:09:46.896Z,1020.85
2018-08-22T01:10:46.870Z,1020.88
2018-08-22T01:11:46.847Z,1020.86
2018-08-22T01:12:46.823Z,1020.87
2018-08-22T01:13:46.798Z,1020.88
2018-08-22T01:14:46.773Z,1020.87
2018-08-22T01:15:46.749Z,1020.85
2018-08-22T01:16:46.726Z,1020.84
2018-08-22T01:17:46.701Z,1020.84
2018-08-22T01:18:46.682Z,1020.82
2018-08-22T01:19:46.650Z,1020.83
2018-08-22T01:20:46.626Z,1020.80
2018-08-22T01:21:46.602Z,1020.80
2018-08-22T01:22:46.577Z,1020.86
2018-08-22T01:23:46.554Z,1020.80
2018-08-22T01:24:46.529Z,1020.82
2018-08-22T01:25:46.504Z,1020.82
2018-08-22T01:26:46.479Z,1020.79
2018-08-22T01:27:46.454Z,1020.79
2018-08-22T01:28:46.431Z,1020.85
2018-08-22T01:29:46.407Z,1020.79
2018-08-22T01:30:46.381Z,1020.81
2018-08-22T01:31:46.356Z,1020.82
2018-08-22T01:32:46.333Z,1020.80
2018-08-22T01:33:46.309Z,1020.81
2018-08-22T01:34:46.282Z,1020.84
2018-08-22T01:35:46.257Z,1020.82
2018-08-22T01:36:46.236Z,1020.81
2018-08-22T01:37:46.209Z,1020.79
2018-08-22T01:38:46.184Z,1020.85
2018-08-22T01:39:46.159Z,1020.86
2018-08-22T01:40:46.140Z,1020.84
2018-08-22T01:41:46.110Z,1020.85
2018-08-22T01:42:46.087Z,1020.85
2018-08-22T01:43:46.062Z,1020.86
2018-08-22T01:44:46.036Z,1020.79
2018-08-22T01:45:46.012Z,1020.81
2018-08-22T01:46:45.986Z,1020.80
2018-08-22T01:47:45.964Z,1020.75
2018-08-22T01:48:45.938Z,1020.75
2018-08-22T01:49:45.913Z,1020.76
2018-08-22T01:50:45.888Z,1020.78
2018-08-22T01:51:45.864Z,1020.76
2018-08-22T01:52:45.839Z,1020.76
2018-08-22T01:53:45.814Z,1020.73
2018-08-22T01:54:45.789Z,1020.74
2018-08-22T01:55:45.766Z,1020.72
2018-08-22T01:56:45.740Z,1020.74
2018-08-22T01:57:45.715Z,1020.71
2018-08-22T01:58:45.705Z,1020.72
2018-08-22T01:59:45.665Z,1020.69
2018-08-22T02:00:45.645Z,1020.67
2018-08-22T02:01:45.616Z,1020.68
2018-08-22T02:02:45.592Z,1020.66
2018-08-22T02:03:45.570Z,1020.64
2018-08-22T02:04:45.545Z,1020.60
2018-08-22T02:05:45.517Z,1020.61
2018-08-22T02:06:45.493Z,1020.61
2018-08-22T02:07:45.468Z,1020.59
2018-08-22T02:08:45.443Z,1020.59
2018-08-22T02:09:45.418Z,1020.62
2018-08-22T02:10:45.394Z,1020.57
2018-08-22T02:11:45.368Z,1020.58
2018-08-22T02:12:45.344Z,1020.59
2018-08-22T02:13:45.321Z,1020.61
2018-08-22T02:14:45.295Z,1020.60
2018-08-22T02:15:45.269Z,1020.60
2018-08-22T02:16:45.249Z,1020.60
2018-08-22T02:17:45.220Z,1020.59
2018-08-22T02:18:45.195Z,1020.60
2018-08-22T02:19:45.169Z,1020.61
2018-08-22T02:20:45.145Z,1020.59
2018-08-22T02:21:45.120Z,1020.63
2018-08-22T02:22:45.094Z,1020.63
2018-08-22T02:23:45.070Z,1020.62
2018-08-22T02:24:45.048Z,1020.61
2018-08-22T02:25:45.025Z,1020.63
2018-08-22T02:26:44.995Z,1020.60
2018-08-22T02:27:44.972Z,1020.61
2018-08-22T02:28:44.947Z,1020.57
2018-08-22T02:29:44.922Z,1020.58
2018-08-22T02:30:44.897Z,1020.55
2018-08-22T02:31:44.872Z,1020.58
2018-08-22T02:32:44.849Z,1020.57
2018-08-22T02:33:44.823Z,1020.59
2018-08-22T02:34:44.797Z,1020.57
2018-08-22T02:35:44.773Z,1020.56
2018-08-22T02:36:44.748Z,1020.54
2018-08-22T02:37:44.725Z,1020.53
2018-08-22T02:38:44.697Z,1020.53
2018-08-22T02:39:44.672Z,1020.48
2018-08-22T02:40:44.649Z,1020.49
2018-08-22T02:41:44.622Z,1020.50
2018-08-22T02:42:44.597Z,1020.46
2018-08-22T02:43:44.571Z,1020.48
2018-08-22T02:44:44.547Z,1020.45
2018-08-22T02:45:44.521Z,1020.46
2018-08-22T02:46:44.499Z,1020.47
2018-08-22T02:47:44.472Z,1020.46
2018-08-22T02:48:44.447Z,1020.47
2018-08-22T02:49:44.422Z,1020.45
2018-08-22T02:50:44.396Z,1020.42
2018-08-22T02:51:44.372Z,1020.40
2018-08-22T02:52:44.346Z,1020.43
2018-08-22T02:53:44.323Z,1020.37
2018-08-22T02:54:44.296Z,1020.42
2018-08-22T02:55:44.271Z,1020.37
2018-08-22T02:56:44.247Z,1020.38
2018-08-22T02:57:44.222Z,1020.39
2018-08-22T02:58:44.194Z,1020.38
2018-08-22T02:59:44.171Z,1020.37
2018-08-22T03:00:44.145Z,1020.40
2018-08-22T03:01:44.121Z,1020.40
2018-08-22T03:02:44.095Z,1020.40
2018-08-22T03:03:44.069Z,1020.38
2018-08-22T03:04:44.044Z,1020.39
2018-08-22T03:05:44.020Z,1020.38
2018-08-22T03:06:43.993Z,1020.37
2018-08-22T03:07:43.969Z,1020.36
2018-08-22T03:08:43.948Z,1020.37
2018-08-22T03:09:43.919Z,1020.32
2018-08-22T03:10:43.894Z,1020.36
2018-08-22T03:11:43.869Z,1020.36
2018-08-22T03:12:43.843Z,1020.31
2018-08-22T03:13:43.821Z,1020.34
2018-08-22T03:14:43.793Z,1020.28
2018-08-22T03:15:43.769Z,1020.33
2018-08-22T03:16:43.742Z,1020.33
2018-08-22T03:17:43.717Z,1020.26
2018-08-22T03:18:43.693Z,1020.30
2018-08-22T03:19:43.671Z,1020.32
2018-08-22T03:20:43.642Z,1020.29
2018-08-22T03:21:43.618Z,1020.32
2018-08-22T03:22:43.591Z,1020.31
2018-08-22T03:23:43.570Z,1020.34
2018-08-22T03:24:43.542Z,1020.30
2018-08-22T03:25:43.515Z,1020.30
2018-08-22T03:26:43.491Z,1020.32
2018-08-22T03:27:43.465Z,1020.35
2018-08-22T03:28:43.441Z,1020.32
2018-08-22T03:29:43.415Z,1020.33
2018-08-22T03:30:43.391Z,1020.30
2018-08-22T03:31:43.366Z,1020.34
2018-08-22T03:32:43.340Z,1020.34
2018-08-22T03:33:43.315Z,1020.32
2018-08-22T03:34:43.289Z,1020.28
2018-08-22T03:35:43.263Z,1020.26
2018-08-22T03:36:43.240Z,1020.23
2018-08-22T03:37:43.213Z,1020.29
2018-08-22T03:38:43.187Z,1020.26
2018-08-22T03:39:43.164Z,1020.28
2018-08-22T03:40:43.137Z,1020.26
2018-08-22T03:41:43.113Z,1020.26
2018-08-22T03:42:43.085Z,1020.23
2018-08-22T03:43:43.062Z,1020.24
2018-08-22T03:44:43.037Z,1020.26
2018-08-22T03:45:43.012Z,1020.26
2018-08-22T03:46:42.986Z,1020.27
2018-08-22T03:47:42.960Z,1020.24
2018-08-22T03:48:42.936Z,1020.28
2018-08-22T03:49:42.911Z,1020.32
2018-08-22T03:50:42.884Z,1020.25
2018-08-22T03:51:42.858Z,1020.27
2018-08-22T03:52:42.834Z,1020.22
2018-08-22T03:53:42.809Z,1020.22
2018-08-22T03:54:42.783Z,1020.19
2018-08-22T03:55:42.757Z,1020.19
2018-08-22T03:56:42.734Z,1020.17
2018-08-22T03:57:42.708Z,1020.21
2018-08-22T03:58:42.682Z,1020.18
2018-08-22T03:59:42.655Z,1020.21
2018-08-22T04:00:42.629Z,1020.23
2018-08-22T04:01:42.608Z,1020.27
2018-08-22T04:02:42.580Z,1020.25
2018-08-22T04:03:42.555Z,1020.27
2018-08-22T04:04:42.528Z,1020.26
2018-08-22T04:05:42.505Z,1020.27
2018-08-22T04:06:42.477Z,1020.26
2018-08-22T04:07:42.452Z,1020.24
2018-08-22T04:08:42.427Z,1020.26
2018-08-22T04:09:42.402Z,1020.24
2018-08-22T04:10:42.376Z,1020.27
2018-08-22T04:11:42.351Z,1020.24
2018-08-22T04:12:42.326Z,1020.28
2018-08-22T04:13:42.301Z,1020.24
2018-08-22T04:14:42.277Z,1020.22
2018-08-22T04:15:42.249Z,1020.24
2018-08-22T04:16:42.223Z,1020.26
2018-08-22T04:17:42.200Z,1020.28
2018-08-22T04:18:42.173Z,1020.23
2018-08-22T04:19:42.147Z,1020.25
2018-08-22T04:20:42.121Z,1020.20
2018-08-22T04:21:42.099Z,1020.23
2018-08-22T04:22:42.070Z,1020.21
2018-08-22T04:23:42.046Z,1020.23
2018-08-22T04:24:42.021Z,1020.24
2018-08-22T04:25:41.996Z,1020.22
2018-08-22T04:26:41.970Z,1020.24
2018-08-22T04:27:41.944Z,1020.22
2018-08-22T04:28:41.918Z,1020.19
2018-08-22T04:29:41.894Z,1020.23
2018-08-22T04:30:41.868Z,1020.20
2018-08-22T04:31:41.842Z,1020.19
2018-08-22T04:32:41.825Z,1020.23
2018-08-22T04:33:41.793Z,1020.21
2018-08-22T04:34:41.767Z,1020.22
2018-08-22T04:35:41.741Z,1020.22
2018-08-22T04:36:41.717Z,1020.21
2018-08-22T04:37:41.693Z,1020.22
2018-08-22T04:38:41.666Z,1020.21
2018-08-22T04:39:41.640Z,1020.20
2018-08-22T04:40:41.616Z,1020.17
2018-08-22T04:41:41.589Z,1020.19
2018-08-22T04:42:41.562Z,1020.20
2018-08-22T04:43:41.537Z,1020.16
2018-08-22T04:44:41.513Z,1020.19
2018-08-22T04:45:41.489Z,1020.20
2018-08-22T04:46:41.462Z,1020.10
2018-08-22T04:47:41.439Z,1020.15
2018-08-22T04:48:41.412Z,1020.18
2018-08-22T04:49:41.387Z,1020.16
2018-08-22T04:50:41.360Z,1020.18
2018-08-22T04:51:41.337Z,1020.20
2018-08-22T04:52:41.311Z,1020.19
2018-08-22T04:53:41.285Z,1020.18
2018-08-22T04:54:41.259Z,1020.21
2018-08-22T04:55:41.237Z,1020.17
2018-08-22T04:56:41.211Z,1020.15
2018-08-22T04:57:41.185Z,1020.15
2018-08-22T04:58:41.160Z,1020.16
2018-08-22T04:59:41.134Z,1020.15
2018-08-22T05:00:41.110Z,1020.15
2018-08-22T05:01:41.095Z,1020.19
2018-08-22T05:02:41.061Z,1020.17
2018-08-22T05:03:41.038Z,1020.17
2018-08-22T05:04:41.009Z,1020.17
2018-08-22T05:05:40.985Z,1020.20
2018-08-22T05:06:40.958Z,1020.21
2018-08-22T05:07:40.945Z,1020.22
2018-08-22T05:08:40.911Z,1020.24
2018-08-22T05:09:40.885Z,1020.20
2018-08-22T05:10:40.859Z,1020.24
2018-08-22T05:11:40.836Z,1020.21
2018-08-22T05:12:40.811Z,1020.17
2018-08-22T05:13:40.785Z,1020.18
2018-08-22T05:14:40.759Z,1020.20
2018-08-22T05:15:40.735Z,1020.21
2018-08-22T05:16:40.713Z,1020.18
2018-08-22T05:17:40.686Z,1020.15
2018-08-22T05:18:40.661Z,1020.17
2018-08-22T05:19:40.639Z,1020.13
2018-08-22T05:20:40.612Z,1020.16
2018-08-22T05:21:40.587Z,1020.14
2018-08-22T05:22:40.563Z,1020.13
2018-08-22T05:23:40.537Z,1020.13
2018-08-22T05:24:40.526Z,1020.15
2018-08-22T05:25:40.490Z,1020.15
2018-08-22T05:26:40.463Z,1020.18
2018-08-22T05:27:40.440Z,1020.19
2018-08-22T05:28:40.417Z,1020.23
2018-08-22T05:29:40.393Z,1020.21
2018-08-22T05:30:40.370Z,1020.20
2018-08-22T05:31:40.347Z,1020.22
2018-08-22T05:32:40.324Z,1020.20
2018-08-22T05:33:40.301Z,1020.19
2018-08-22T05:34:40.280Z,1020.14
2018-08-22T05:35:40.258Z,1020.18
2018-08-22T05:36:40.237Z,1020.20
2018-08-22T05:37:40.219Z,1020.23
2018-08-22T05:38:40.194Z,1020.23
2018-08-22T05:39:40.173Z,1020.20
2018-08-22T05:40:40.198Z,1020.21
2018-08-22T05:41:40.135Z,1020.21
2018-08-22T05:42:40.111Z,1020.18
2018-08-22T05:43:40.092Z,1020.19
2018-08-22T05:44:40.073Z,1020.25
2018-08-22T05:45:40.053Z,1020.24
2018-08-22T05:46:40.033Z,1020.23
2018-08-22T05:47:40.015Z,1020.18
2018-08-22T05:48:39.995Z,1020.19
2018-08-22T05:49:39.977Z,1020.19
2018-08-22T05:50:39.959Z,1020.17
2018-08-22T05:51:39.940Z,1020.21
2018-08-22T05:52:39.921Z,1020.22
2018-08-22T05:53:39.904Z,1020.21
2018-08-22T05:54:39.884Z,1020.18
2018-08-22T05:55:39.867Z,1020.16
2018-08-22T05:56:39.849Z,1020.15
2018-08-22T05:57:39.902Z,1020.20
2018-08-22T05:58:39.815Z,1020.17
2018-08-22T05:59:39.795Z,1020.18
2018-08-22T06:00:39.778Z,1020.12
2018-08-22T06:01:39.761Z,1020.14
2018-08-22T06:02:39.745Z,1020.16
2018-08-22T06:03:39.728Z,1020.15
2018-08-22T06:04:39.711Z,1020.14
2018-08-22T06:05:39.694Z,1020.11
2018-08-22T06:06:39.677Z,1020.14
2018-08-22T06:07:39.660Z,1020.12
2018-08-22T06:08:39.645Z,1020.09
2018-08-22T06:09:39.629Z,1020.08
2018-08-22T06:10:39.610Z,1020.04
2018-08-22T06:11:39.595Z,1020.04
2018-08-22T06:12:39.581Z,1020.07
2018-08-22T06:13:39.564Z,1020.07
2018-08-22T06:14:39.548Z,1020.06
2018-08-22T06:15:39.564Z,1020.05
2018-08-22T06:16:39.515Z,1020.04
2018-08-22T06:17:39.500Z,1020.07
2018-08-22T06:18:39.484Z,1020.03
2018-08-22T06:19:39.470Z,1019.97
2018-08-22T06:20:39.453Z,1020.01
2018-08-22T06:21:39.437Z,1020.01
2018-08-22T06:22:39.423Z,1020.03
2018-08-22T06:23:39.407Z,1020.03
2018-08-22T06:24:39.393Z,1020.08
2018-08-22T06:25:39.412Z,1020.03
2018-08-22T06:26:39.362Z,1020.03
2018-08-22T06:27:39.347Z,1020.01
2018-08-22T06:28:39.332Z,1020.03
2018-08-22T06:29:39.319Z,1019.98
2018-08-22T06:30:39.301Z,1020.04
2018-08-22T06:31:39.287Z,1020.00
2018-08-22T06:32:39.272Z,1019.99
2018-08-22T06:33:39.259Z,1020.01
2018-08-22T06:34:39.245Z,1020.02
2018-08-22T06:35:39.231Z,1020.05
2018-08-22T06:36:39.215Z,1020.05
2018-08-22T06:37:39.346Z,1020.03
2018-08-22T06:38:39.185Z,1020.05
2018-08-22T06:39:39.171Z,1020.05
2018-08-22T06:40:39.156Z,1020.03
2018-08-22T06:41:39.142Z,1020.04
2018-08-22T06:42:39.126Z,1020.05
2018-08-22T06:43:39.112Z,1020.04
2018-08-22T06:44:39.098Z,1020.00
2018-08-22T06:45:39.083Z,1019.98
2018-08-22T06:46:39.067Z,1020.00
2018-08-22T06:47:39.054Z,1020.02
2018-08-22T06:48:39.039Z,1020.02
2018-08-22T06:49:39.024Z,1020.01
2018-08-22T06:50:39.015Z,1019.99
2018-08-22T06:51:38.994Z,1019.98
2018-08-22T06:52:38.982Z,1019.95
2018-08-22T06:53:38.966Z,1019.94
2018-08-22T06:54:38.955Z,1019.92
2018-08-22T06:55:38.941Z,1019.94
2018-08-22T06:56:38.924Z,1019.91
2018-08-22T06:57:38.910Z,1019.95
2018-08-22T06:58:38.894Z,1019.89
2018-08-22T06:59:38.882Z,1019.92
2018-08-22T07:00:38.867Z,1019.87
2018-08-22T07:01:38.855Z,1019.88
2018-08-22T07:02:38.841Z,1019.84
2018-08-22T07:03:38.827Z,1019.83
2018-08-22T07:04:38.813Z,1019.87
2018-08-22T07:05:38.801Z,1019.87
2018-08-22T07:06:38.786Z,1019.87
2018-08-22T07:07:38.773Z,1019.87
2018-08-22T07:08:38.758Z,1019.88
2018-08-22T07:09:38.745Z,1019.89
2018-08-22T07:10:38.733Z,1019.88
2018-08-22T07:11:38.718Z,1019.86
2018-08-22T07:12:38.706Z,1019.89
2018-08-22T07:13:38.692Z,1019.89
2018-08-22T07:14:38.680Z,1019.90
2018-08-22T07:15:38.667Z,1019.86
2018-08-22T07:16:38.654Z,1019.86
2018-08-22T07:17:38.639Z,1019.81
2018-08-22T07:18:38.627Z,1019.79
2018-08-22T07:19:38.615Z,1019.79
2018-08-22T07:20:38.602Z,1019.80
2018-08-22T07:21:38.591Z,1019.82
2018-08-22T07:22:38.576Z,1019.77
2018-08-22T07:23:38.564Z,1019.80
2018-08-22T07:24:38.550Z,1019.85
2018-08-22T07:25:38.540Z,1019.84
2018-08-22T07:26:38.526Z,1019.84
2018-08-22T07:27:38.512Z,1019.82
2018-08-22T07:28:38.499Z,1019.80
2018-08-22T07:29:38.488Z,1019.76
2018-08-22T07:30:38.476Z,1019.73
2018-08-22T07:31:38.465Z,1019.75
2018-08-22T07:32:38.452Z,1019.75
2018-08-22T07:33:38.440Z,1019.78
2018-08-22T07:34:38.427Z,1019.72
2018-08-22T07:35:38.443Z,1019.74
2018-08-22T07:36:38.403Z,1019.71
2018-08-22T07:37:38.391Z,1019.75
2018-08-22T07:38:38.379Z,1019.69
2018-08-22T07:39:38.369Z,1019.68
2018-08-22T07:40:38.356Z,1019.66
2018-08-22T07:41:38.343Z,1019.68
2018-08-22T07:42:38.332Z,1019.69
2018-08-22T07:43:38.319Z,1019.71
2018-08-22T07:44:38.308Z,1019.72
2018-08-22T07:45:38.296Z,1019.75
2018-08-22T07:46:38.284Z,1019.75
2018-08-22T07:47:38.276Z,1019.72
2018-08-22T07:48:38.260Z,1019.69
2018-08-22T07:49:38.247Z,1019.71
2018-08-22T07:50:38.236Z,1019.70
2018-08-22T07:51:38.224Z,1019.71
2018-08-22T07:52:38.214Z,1019.68
2018-08-22T07:53:38.201Z,1019.70
2018-08-22T07:54:38.190Z,1019.74
2018-08-22T07:55:38.184Z,1019.74
2018-08-22T07:56:38.166Z,1019.72
2018-08-22T07:57:38.155Z,1019.73
2018-08-22T07:58:38.144Z,1019.69
2018-08-22T07:59:38.134Z,1019.69
2018-08-22T08:00:38.123Z,1019.68
2018-08-22T08:01:38.114Z,1019.68
2018-08-22T08:02:38.102Z,1019.66
2018-08-22T08:03:38.089Z,1019.70
2018-08-22T08:04:38.079Z,1019.67
2018-08-22T08:05:38.165Z,1019.64
2018-08-22T08:06:38.055Z,1019.65
2018-08-22T08:07:38.044Z,1019.64
2018-08-22T08:08:38.077Z,1019.66
2018-08-22T08:09:38.023Z,1019.61
2018-08-22T08:10:38.009Z,1019.60
2018-08-22T08:11:37.998Z,1019.60
2018-08-22T08:12:37.988Z,1019.61
2018-08-22T08:13:37.978Z,1019.59
2018-08-22T08:14:37.965Z,1019.55
2018-08-22T08:15:37.956Z,1019.55
2018-08-22T08:16:37.945Z,1019.57
2018-08-22T08:17:37.960Z,1019.54
2018-08-22T08:18:37.923Z,1019.53
2018-08-22T08:19:37.972Z,1019.52
2018-08-22T08:20:37.902Z,1019.52
2018-08-22T08:21:37.893Z,1019.50
2018-08-22T08:22:37.879Z,1019.52
2018-08-22T08:23:37.868Z,1019.48
2018-08-22T08:24:37.857Z,1019.43
2018-08-22T08:25:37.852Z,1019.46
2018-08-22T08:26:37.835Z,1019.44
2018-08-22T08:27:37.823Z,1019.41
2018-08-22T08:28:37.813Z,1019.42
2018-08-22T08:29:37.802Z,1019.40
2018-08-22T08:30:37.895Z,1019.42
2018-08-22T08:31:37.782Z,1019.41
2018-08-22T08:32:37.770Z,1019.39
2018-08-22T08:33:37.759Z,1019.36
2018-08-22T08:34:37.746Z,1019.37
2018-08-22T08:35:37.746Z,1019.38
2018-08-22T08:36:37.728Z,1019.36
2018-08-22T08:37:37.714Z,1019.32
2018-08-22T08:38:37.744Z,1019.32
2018-08-22T08:39:37.695Z,1019.32
2018-08-22T08:40:37.683Z,1019.32
2018-08-22T08:41:37.773Z,1019.32
2018-08-22T08:42:37.661Z,1019.30
2018-08-22T08:43:37.651Z,1019.28
2018-08-22T08:44:37.641Z,1019.29
2018-08-22T08:45:37.631Z,1019.27
2018-08-22T08:46:37.619Z,1019.26
2018-08-22T08:47:37.607Z,1019.24
2018-08-22T08:48:37.608Z,1019.22
2018-08-22T08:49:37.626Z,1019.19
2018-08-22T08:50:37.576Z,1019.21
2018-08-22T08:51:37.565Z,1019.19
2018-08-22T08:52:37.555Z,1019.19
2018-08-22T08:53:37.560Z,1019.22
2018-08-22T08:54:37.533Z,1019.20
2018-08-22T08:55:37.522Z,1019.20
2018-08-22T08:56:37.512Z,1019.17
2018-08-22T08:57:37.502Z,1019.13
2018-08-22T08:58:37.491Z,1019.06
2018-08-22T08:59:37.480Z,1019.09
2018-08-22T09:00:37.470Z,1019.09
2018-08-22T09:01:37.460Z,1019.07
2018-08-22T09:02:37.449Z,1019.06
2018-08-22T09:03:37.437Z,1019.04
2018-08-22T09:04:37.442Z,1019.06
2018-08-22T09:05:37.418Z,1019.05
2018-08-22T09:06:37.456Z,1019.03
2018-08-22T09:07:37.396Z,1019.01
2018-08-22T09:08:37.383Z,1019.03
2018-08-22T09:09:37.374Z,1019.02
2018-08-22T09:10:37.421Z,1018.96
2018-08-22T09:11:37.351Z,1018.98
2018-08-22T09:12:37.342Z,1018.97
2018-08-22T09:13:37.330Z,1018.99
2018-08-22T09:14:37.322Z,1018.96
2018-08-22T09:15:37.335Z,1018.94
2018-08-22T09:16:37.299Z,1018.96
2018-08-22T09:17:37.309Z,1018.92
2018-08-22T09:18:37.276Z,1018.93
2018-08-22T09:19:37.293Z,1018.93
2018-08-22T09:20:37.256Z,1018.94
2018-08-22T09:21:37.311Z,1018.97
2018-08-22T09:22:37.234Z,1018.91
2018-08-22T09:23:37.224Z,1018.84
2018-08-22T09:24:37.214Z,1018.81
2018-08-22T09:25:37.201Z,1018.85
2018-08-22T09:26:37.191Z,1018.79
2018-08-22T09:27:37.180Z,1018.77
2018-08-22T09:28:37.170Z,1018.82
2018-08-22T09:29:37.167Z,1018.77
2018-08-22T09:30:37.149Z,1018.76
2018-08-22T09:31:37.137Z,1018.74
2018-08-22T09:32:37.128Z,1018.76
2018-08-22T09:33:37.122Z,1018.68
2018-08-22T09:34:37.107Z,1018.70
2018-08-22T09:35:37.209Z,1018.67
2018-08-22T09:36:37.089Z,1018.69
2018-08-22T09:37:37.078Z,1018.67
2018-08-22T09:38:37.065Z,1018.67
2018-08-22T09:39:37.067Z,1018.68
2018-08-22T09:40:37.047Z,1018.68
2018-08-22T09:41:37.038Z,1018.64
2018-08-22T09:42:37.028Z,1018.64
2018-08-22T09:43:37.015Z,1018.66
2018-08-22T09:44:37.008Z,1018.64
2018-08-22T09:45:37.003Z,1018.65
2018-08-22T09:46:37.055Z,1018.62
2018-08-22T09:47:36.977Z,1018.62
2018-08-22T09:48:36.967Z,1018.58
2018-08-22T09:49:36.959Z,1018.62
2018-08-22T09:50:36.946Z,1018.61
2018-08-22T09:51:36.935Z,1018.59
2018-08-22T09:52:36.925Z,1018.59
2018-08-22T09:53:36.914Z,1018.55
2018-08-22T09:54:36.920Z,1018.52
2018-08-22T09:55:36.894Z,1018.47
2018-08-22T09:56:36.884Z,1018.51
2018-08-22T09:57:36.875Z,1018.54
2018-08-22T09:58:36.866Z,1018.48
2018-08-22T09:59:36.854Z,1018.48
2018-08-22T10:00:36.899Z,1018.44
2018-08-22T10:01:36.834Z,1018.45
2018-08-22T10:02:36.824Z,1018.43
2018-08-22T10:03:36.813Z,1018.41
2018-08-22T10:04:36.803Z,1018.38
2018-08-22T10:05:36.794Z,1018.36
2018-08-22T10:06:36.911Z,1018.41
2018-08-22T10:07:36.774Z,1018.33
2018-08-22T10:08:36.762Z,1018.38
2018-08-22T10:09:36.752Z,1018.40
2018-08-22T10:10:36.741Z,1018.40
2018-08-22T10:11:36.731Z,1018.35
2018-08-22T10:12:36.721Z,1018.34
2018-08-22T10:13:36.714Z,1018.31
2018-08-22T10:14:36.705Z,1018.35
2018-08-22T10:15:36.690Z,1018.33
2018-08-22T10:16:36.681Z,1018.27
2018-08-22T10:17:36.671Z,1018.30
2018-08-22T10:18:36.660Z,1018.20
2018-08-22T10:19:36.699Z,1018.25
2018-08-22T10:20:36.638Z,1018.25
2018-08-22T10:21:36.629Z,1018.25
2018-08-22T10:22:36.617Z,1018.25
2018-08-22T10:23:36.608Z,1018.26
2018-08-22T10:24:36.597Z,1018.24
2018-08-22T10:25:36.588Z,1018.15
2018-08-22T10:26:36.740Z,1018.13
2018-08-22T10:27:36.568Z,1018.17
2018-08-22T10:28:36.558Z,1018.14
2018-08-22T10:29:36.548Z,1018.14
2018-08-22T10:30:36.538Z,1018.18
2018-08-22T10:31:36.526Z,1018.13
2018-08-22T10:32:36.583Z,1018.14
2018-08-22T10:33:36.506Z,1018.15
2018-08-22T10:34:36.494Z,1018.14
2018-08-22T10:35:36.484Z,1018.13
2018-08-22T10:36:36.474Z,1018.15
2018-08-22T10:37:36.465Z,1018.15
2018-08-22T10:38:36.522Z,1018.12
2018-08-22T10:39:36.522Z,1018.10
2018-08-22T10:40:36.437Z,1018.10
2018-08-22T10:41:36.423Z,1018.04
2018-08-22T10:42:36.411Z,1018.06
2018-08-22T10:43:36.402Z,1018.05
2018-08-22T10:44:36.480Z,1018.08
2018-08-22T10:45:36.382Z,1018.04
2018-08-22T10:46:36.370Z,1018.09
2018-08-22T10:47:36.360Z,1018.03
2018-08-22T10:48:36.351Z,1018.04
2018-08-22T10:49:36.349Z,1018.01
2018-08-22T10:50:36.381Z,1018.04
2018-08-22T10:51:36.327Z,1018.00
2018-08-22T10:52:36.311Z,1018.02
2018-08-22T10:53:36.301Z,1018.06
2018-08-22T10:54:36.289Z,1018.02
2018-08-22T10:55:36.280Z,1017.98
2018-08-22T10:56:36.270Z,1017.98
2018-08-22T10:57:36.260Z,1018.00
2018-08-22T10:58:36.249Z,1017.98
2018-08-22T10:59:36.238Z,1017.93
2018-08-22T11:00:36.229Z,1017.89
2018-08-22T11:01:36.219Z,1017.91
2018-08-22T11:02:36.209Z,1017.90
2018-08-22T11:03:36.197Z,1017.87
2018-08-22T11:04:36.188Z,1017.85
2018-08-22T11:05:36.178Z,1017.82
2018-08-22T11:06:36.169Z,1017.86
2018-08-22T11:07:36.159Z,1017.80
2018-08-22T11:08:36.147Z,1017.82
2018-08-22T11:09:36.137Z,1017.87
2018-08-22T11:10:36.129Z,1017.88
2018-08-22T11:11:36.118Z,1017.89
2018-08-22T11:12:36.109Z,1017.88
2018-08-22T11:13:36.097Z,1017.85
2018-08-22T11:14:36.088Z,1017.81
2018-08-22T11:15:36.123Z,1017.82
2018-08-22T11:16:36.069Z,1017.81
2018-08-22T11:17:36.060Z,1017.78
2018-08-22T11:18:36.052Z,1017.79
2018-08-22T11:19:36.042Z,1017.82
2018-08-22T11:20:36.030Z,1017.81
2018-08-22T11:21:36.018Z,1017.76
2018-08-22T11:22:36.009Z,1017.71
2018-08-22T11:23:35.998Z,1017.71
2018-08-22T11:24:35.989Z,1017.68
2018-08-22T11:25:35.979Z,1017.68
2018-08-22T11:26:35.968Z,1017.64
2018-08-22T11:27:35.959Z,1017.65
2018-08-22T11:28:35.949Z,1017.65
2018-08-22T11:29:35.940Z,1017.65
2018-08-22T11:30:35.928Z,1017.61
2018-08-22T11:31:35.920Z,1017.61
2018-08-22T11:32:35.909Z,1017.61
2018-08-22T11:33:35.899Z,1017.60
2018-08-22T11:34:35.896Z,1017.50
2018-08-22T11:35:35.881Z,1017.54
2018-08-22T11:36:35.867Z,1017.53
2018-08-22T11:37:35.858Z,1017.51
2018-08-22T11:38:35.847Z,1017.53
2018-08-22T11:39:35.837Z,1017.51
2018-08-22T11:40:35.826Z,1017.55
2018-08-22T11:41:35.818Z,1017.55
2018-08-22T11:42:35.805Z,1017.50
2018-08-22T11:43:35.796Z,1017.55
2018-08-22T11:44:35.785Z,1017.53
2018-08-22T11:45:35.774Z,1017.49
2018-08-22T11:46:35.781Z,1017.51
2018-08-22T11:47:35.753Z,1017.50
2018-08-22T11:48:35.742Z,1017.57
2018-08-22T11:49:35.732Z,1017.50
2018-08-22T11:50:35.722Z,1017.48
2018-08-22T11:51:35.710Z,1017.50
2018-08-22T11:52:35.699Z,1017.55
2018-08-22T11:53:35.688Z,1017.46
2018-08-22T11:54:35.677Z,1017.46
2018-08-22T11:55:35.665Z,1017.48
2018-08-22T11:56:35.655Z,1017.46
2018-08-22T11:57:35.650Z,1017.42
2018-08-22T11:58:35.638Z,1017.41
2018-08-22T11:59:35.633Z,1017.40
2018-08-22T12:00:35.614Z,1017.37
2018-08-22T12:01:35.602Z,1017.35
2018-08-22T12:02:35.591Z,1017.31
2018-08-22T12:03:35.581Z,1017.32
2018-08-22T12:04:35.569Z,1017.30
2018-08-22T12:05:35.560Z,1017.35